Terminal Aerodrome Forecast
Issued by NWS Charleston, WV

Current Version | Previous Version | Text Only | Print | Product List | Glossary Off
Versions: 1 2 3 4 5 6 7 8 9 10 11 12 13 14 15 16 17 18 19 20 21 22 23 24 25 26 27

000
FTUS41 KRLX 050856 AAC
TAFCRW
TAF AMD
KCRW 050856Z 0509/0606 00000KT 1/2SM FG BKN001
     FM051200 00000KT 2SM BR BKN005 BKN080
     FM051300 17004KT 6SM BR BKN070
     FM052100 12004KT P6SM VCSH OVC050
     FM052300 09003KT 4SM SHRA VCTS OVC040CB
     FM060200 00000KT P6SM BKN050
     FM060500 00000KT 5SM BR BKN050=

USA.gov is the U.S. government's official web portal to all federal, state and local government web resources and services.